Time;durP1;ratioP1;P1;durP2;ratioP2;P2;SDS_P1;SDS_P2;PMS_P1;PMS_P2;Temp;Humidity;BMP_temperature;BMP_pressure;BME280_temperature;BME280_humidity;BME280_pressure;Samples;Min_cycle;Max_cycle;Signal;HPM_P1;HPM_P2
2023/10/31 00:01:46;;;;;;;3.10;2.90;;;15.20;99.90;;;;;;4960137;28;20457;-66
2023/10/31 00:04:11;;;;;;;2.90;2.70;;;15.20;99.90;;;;;;4946726;28;20438;-64
2023/10/31 00:06:40;;;;;;;3.63;3.43;;;15.20;99.90;;;;;;4943131;28;20438;-65
2023/10/31 00:09:08;;;;;;;3.60;3.40;;;15.20;99.90;;;;;;4942721;28;20422;-65
2023/10/31 00:11:35;;;;;;;3.10;2.90;;;15.20;99.90;;;;;;4958329;28;20464;-65
2023/10/31 00:14:01;;;;;;;3.33;3.10;;;15.20;99.90;;;;;;4927381;28;20461;-66
2023/10/31 00:16:27;;;;;;;3.17;2.93;;;15.20;99.90;;;;;;4926727;28;20511;-67
2023/10/31 00:18:57;;;;;;;3.63;3.33;;;15.10;99.90;;;;;;4959821;28;20426;-66
2023/10/31 00:21:22;;;;;;;3.20;3.00;;;15.10;99.90;;;;;;4942392;28;21082;-65
2023/10/31 00:23:49;;;;;;;3.30;3.00;;;15.10;99.90;;;;;;4960098;28;20425;-65
2023/10/31 00:26:15;;;;;;;3.00;2.80;;;15.10;99.90;;;;;;4958381;28;20297;-65
2023/10/31 00:28:48;;;;;;;2.93;2.70;;;15.10;99.90;;;;;;4958447;28;20422;-65
2023/10/31 00:31:15;;;;;;;2.90;2.70;;;15.10;99.90;;;;;;4959671;28;20520;-65
2023/10/31 00:33:41;;;;;;;2.80;2.50;;;15.10;99.90;;;;;;4942336;28;20673;-65
2023/10/31 00:36:08;;;;;;;2.77;2.50;;;15.10;99.90;;;;;;4960034;28;20579;-66
2023/10/31 00:38:34;;;;;;;2.80;2.60;;;15.10;99.90;;;;;;4958668;28;20505;-66
2023/10/31 00:41:03;;;;;;;4.63;3.00;;;15.10;99.90;;;;;;4942541;28;20457;-66
2023/10/31 00:43:29;;;;;;;2.83;2.63;;;15.10;99.90;;;;;;4955607;28;20866;-65
2023/10/31 00:45:55;;;;;;;2.60;2.40;;;15.10;99.90;;;;;;5015265;23;20761;-72
2023/10/31 00:48:21;;;;;;;2.93;2.73;;;15.10;99.90;;;;;;4963193;28;20433;-72
2023/10/31 00:50:47;;;;;;;3.10;2.90;;;15.10;99.90;;;;;;4947527;28;20992;-72
2023/10/31 00:53:15;;;;;;;3.53;2.60;;;15.10;99.90;;;;;;4971486;28;20499;-72
2023/10/31 00:55:45;;;;;;;3.77;3.00;;;15.10;99.90;;;;;;4982905;28;20463;-72
2023/10/31 00:58:14;;;;;;;3.13;2.93;;;15.10;99.90;;;;;;4966786;28;20508;-72
2023/10/31 01:00:40;;;;;;;3.80;3.07;;;15.10;99.90;;;;;;4973654;28;20433;-72
2023/10/31 01:03:08;;;;;;;3.40;2.63;;;15.10;99.90;;;;;;4980849;28;20441;-72
2023/10/31 01:05:37;;;;;;;2.80;2.60;;;15.00;99.90;;;;;;4964463;28;20443;-72
2023/10/31 01:08:03;;;;;;;2.90;2.70;;;15.00;99.90;;;;;;4971296;28;20847;-72
2023/10/31 01:10:32;;;;;;;2.80;2.60;;;15.00;99.90;;;;;;4981863;28;20909;-72
2023/10/31 01:13:01;;;;;;;3.37;2.63;;;15.10;99.90;;;;;;4976790;28;20479;-72
2023/10/31 01:15:29;;;;;;;3.00;2.80;;;15.00;99.90;;;;;;4976999;28;20474;-72
2023/10/31 01:18:01;;;;;;;2.80;2.60;;;15.00;99.90;;;;;;4988253;28;20429;-71
2023/10/31 01:20:27;;;;;;;2.73;2.53;;;15.00;99.90;;;;;;4981704;28;20697;-71
2023/10/31 01:22:53;;;;;;;3.13;2.80;;;15.00;99.90;;;;;;4980070;28;20803;-71
2023/10/31 01:25:19;;;;;;;4.30;2.80;;;15.00;99.90;;;;;;4979669;28;20442;-71
2023/10/31 01:27:47;;;;;;;4.33;3.20;;;15.00;99.90;;;;;;4982839;28;20479;-71
2023/10/31 01:30:16;;;;;;;2.97;2.67;;;15.00;99.90;;;;;;4983879;28;21161;-71
2023/10/31 01:32:42;;;;;;;2.67;2.47;;;15.00;99.90;;;;;;5000987;28;20440;-71
2023/10/31 01:35:11;;;;;;;3.17;2.53;;;15.00;99.90;;;;;;4966755;28;21080;-71
2023/10/31 01:37:37;;;;;;;2.80;2.60;;;15.00;99.90;;;;;;4967367;28;20983;-72
2023/10/31 01:40:04;;;;;;;2.57;2.37;;;15.00;99.90;;;;;;4983368;28;20430;-71
2023/10/31 01:42:32;;;;;;;2.33;2.13;;;15.00;99.90;;;;;;4983589;28;20518;-71
2023/10/31 01:45:00;;;;;;;4.50;2.40;;;15.00;99.90;;;;;;4986291;28;20547;-71
2023/10/31 01:47:26;;;;;;;2.90;2.67;;;15.00;99.90;;;;;;4970576;28;20530;-72
2023/10/31 01:49:55;;;;;;;4.60;2.80;;;15.00;99.90;;;;;;4973597;28;20194;-71
2023/10/31 01:52:23;;;;;;;2.63;2.43;;;15.00;99.90;;;;;;4986008;28;20544;-71
2023/10/31 01:54:50;;;;;;;4.70;2.10;;;15.00;99.90;;;;;;5004603;28;20890;-71
2023/10/31 01:57:17;;;;;;;3.20;2.20;;;15.00;99.90;;;;;;4970530;28;20532;-71
2023/10/31 01:59:43;;;;;;;3.03;2.50;;;15.00;99.90;;;;;;4986756;28;20511;-71
2023/10/31 02:02:09;;;;;;;3.80;2.73;;;15.00;99.90;;;;;;4970184;28;20541;-71
2023/10/31 02:04:35;;;;;;;3.50;2.67;;;14.90;99.90;;;;;;4966667;28;20497;-71
2023/10/31 02:07:04;;;;;;;2.93;2.67;;;15.00;99.90;;;;;;4966608;28;20433;-71
2023/10/31 02:09:30;;;;;;;3.10;2.70;;;14.90;99.90;;;;;;4967420;28;20433;-71
2023/10/31 02:11:58;;;;;;;3.17;2.60;;;15.00;99.90;;;;;;4970342;28;20537;-71
2023/10/31 02:14:25;;;;;;;2.40;2.20;;;14.90;99.90;;;;;;4986369;28;20459;-71
2023/10/31 02:16:51;;;;;;;5.00;2.83;;;14.90;99.90;;;;;;4986621;28;20785;-71
2023/10/31 02:19:20;;;;;;;3.30;2.90;;;14.90;99.90;;;;;;4986218;28;20816;-71
2023/10/31 02:21:48;;;;;;;3.47;3.17;;;14.90;99.90;;;;;;4986723;28;20577;-71
2023/10/31 02:24:14;;;;;;;4.03;3.10;;;14.90;99.90;;;;;;4986988;28;21122;-71
2023/10/31 02:26:43;;;;;;;4.27;2.80;;;14.90;99.90;;;;;;4970793;28;21078;-71
2023/10/31 02:29:09;;;;;;;3.40;3.10;;;14.90;99.90;;;;;;4970517;28;20958;-71
2023/10/31 02:31:38;;;;;;;2.73;2.40;;;14.90;99.90;;;;;;4967087;28;20522;-71
2023/10/31 02:34:04;;;;;;;2.77;2.57;;;14.90;99.90;;;;;;4967091;28;20515;-71
2023/10/31 02:36:31;;;;;;;3.20;2.77;;;14.90;99.90;;;;;;4982894;28;20476;-71
2023/10/31 02:38:57;;;;;;;4.33;2.70;;;14.90;99.90;;;;;;4946197;28;20499;-71
2023/10/31 02:41:23;;;;;;;3.23;2.90;;;14.90;99.90;;;;;;4970035;28;20946;-71
2023/10/31 02:43:54;;;;;;;2.60;2.40;;;14.90;99.90;;;;;;4985828;28;20826;-71
2023/10/31 02:46:25;;;;;;;4.33;2.60;;;14.90;99.90;;;;;;5003222;28;20830;-71
2023/10/31 02:48:53;;;;;;;5.50;3.23;;;14.90;99.90;;;;;;4985031;28;20811;-71
2023/10/31 02:51:19;;;;;;;3.20;2.90;;;14.90;99.90;;;;;;5002263;28;20440;-71
2023/10/31 02:53:45;;;;;;;3.37;2.80;;;14.90;99.90;;;;;;4968136;28;20792;-71
2023/10/31 02:56:11;;;;;;;5.40;2.70;;;14.90;99.90;;;;;;4981839;28;20460;-71
2023/10/31 02:58:37;;;;;;;4.60;3.23;;;14.90;99.90;;;;;;4965505;28;20177;-71
2023/10/31 03:01:06;;;;;;;4.40;3.80;;;14.90;99.90;;;;;;4998323;28;20442;-71
2023/10/31 03:03:34;;;;;;;4.03;3.17;;;14.90;99.90;;;;;;4985590;28;20204;-71
2023/10/31 03:06:00;;;;;;;3.83;3.37;;;14.80;99.90;;;;;;4966152;28;20542;-71
2023/10/31 03:08:28;;;;;;;3.80;3.47;;;14.90;99.90;;;;;;4966718;28;20438;-71
2023/10/31 03:10:59;;;;;;;7.07;4.33;;;14.80;99.90;;;;;;4966688;28;20460;-71
2023/10/31 03:13:25;;;;;;;3.63;3.20;;;14.80;99.90;;;;;;4985584;28;20439;-71
2023/10/31 03:15:53;;;;;;;6.80;4.20;;;14.80;99.90;;;;;;4985794;28;20512;-71
2023/10/31 03:18:23;;;;;;;5.53;4.23;;;14.80;99.90;;;;;;4969764;28;20479;-71
2023/10/31 03:20:48;;;;;;;5.53;3.73;;;14.80;99.90;;;;;;4989897;28;20461;-72
2023/10/31 03:23:21;;;;;;;4.93;4.53;;;14.80;99.90;;;;;;4968988;28;20435;-71
2023/10/31 03:25:50;;;;;;;4.97;4.13;;;14.80;99.90;;;;;;4988227;28;20429;-71
2023/10/31 03:28:20;;;;;;;7.10;4.53;;;14.80;99.90;;;;;;4981898;28;20457;-71
2023/10/31 03:30:49;;;;;;;4.57;4.17;;;14.80;99.90;;;;;;4982442;28;20911;-71
2023/10/31 03:33:20;;;;;;;5.27;4.23;;;14.80;99.90;;;;;;4982976;28;20442;-71
2023/10/31 03:35:46;;;;;;;4.33;3.93;;;14.80;99.90;;;;;;4965979;28;20539;-71
2023/10/31 03:38:13;;;;;;;5.37;4.87;;;14.80;99.90;;;;;;4982435;28;20857;-71
2023/10/31 03:40:43;;;;;;;4.50;4.07;;;14.80;99.90;;;;;;4966369;28;20822;-71
2023/10/31 03:43:14;;;;;;;5.30;4.03;;;14.80;99.90;;;;;;4982607;28;20426;-71
2023/10/31 03:45:42;;;;;;;4.80;4.30;;;14.80;99.90;;;;;;4967716;28;20447;-71
2023/10/31 03:48:08;;;;;;;4.70;4.30;;;14.80;99.90;;;;;;4983583;28;20430;-71
2023/10/31 03:50:34;;;;;;;4.80;4.30;;;14.80;99.90;;;;;;4984993;28;20421;-71
2023/10/31 03:53:00;;;;;;;5.00;4.50;;;14.70;99.90;;;;;;4984831;28;20945;-71
2023/10/31 03:55:26;;;;;;;4.63;4.23;;;14.70;99.90;;;;;;4968833;28;20472;-71
2023/10/31 03:57:52;;;;;;;8.47;5.90;;;14.70;99.90;;;;;;4984831;28;20439;-71
2023/10/31 04:00:21;;;;;;;5.30;4.80;;;14.80;99.90;;;;;;4984803;28;20931;-71
2023/10/31 04:02:51;;;;;;;4.87;4.37;;;14.80;99.90;;;;;;4984664;28;20842;-71
2023/10/31 04:05:18;;;;;;;6.43;5.33;;;14.70;99.90;;;;;;4983541;28;20551;-71
2023/10/31 04:07:46;;;;;;;7.87;5.90;;;14.70;99.90;;;;;;4981260;28;20406;-71
2023/10/31 04:10:12;;;;;;;4.67;4.27;;;14.70;99.90;;;;;;4965106;28;20482;-71
2023/10/31 04:12:38;;;;;;;5.57;5.00;;;14.70;99.90;;;;;;4981192;28;20507;-71
2023/10/31 04:15:08;;;;;;;4.80;4.30;;;14.80;99.90;;;;;;4990850;28;20491;-71
2023/10/31 04:17:34;;;;;;;5.03;4.33;;;14.70;99.90;;;;;;4999299;28;20973;-71
2023/10/31 04:20:03;;;;;;;4.90;4.50;;;14.70;99.90;;;;;;4988746;28;20573;-71
2023/10/31 04:22:29;;;;;;;5.30;4.80;;;14.70;99.90;;;;;;4965961;28;20441;-71
2023/10/31 04:24:58;;;;;;;4.80;4.27;;;14.70;99.90;;;;;;4954786;28;20442;-71
2023/10/31 04:27:24;;;;;;;6.90;4.73;;;14.70;99.90;;;;;;4985007;28;20442;-71
2023/10/31 04:29:50;;;;;;;5.57;4.70;;;14.70;99.90;;;;;;4989584;28;20424;-71
2023/10/31 04:32:20;;;;;;;5.57;5.07;;;14.70;99.90;;;;;;4982424;28;20435;-71
2023/10/31 04:34:48;;;;;;;5.87;5.27;;;14.70;99.90;;;;;;5003177;28;20460;-71
2023/10/31 04:37:16;;;;;;;5.13;4.60;;;14.70;99.90;;;;;;4968998;28;20467;-71
2023/10/31 04:39:42;;;;;;;6.00;4.60;;;14.70;99.90;;;;;;4980878;28;20456;-71
2023/10/31 04:42:10;;;;;;;5.27;4.77;;;14.70;99.90;;;;;;4984188;28;20495;-71
2023/10/31 04:44:36;;;;;;;4.53;4.10;;;14.70;99.90;;;;;;4980405;28;20421;-72
2023/10/31 04:47:06;;;;;;;5.20;4.70;;;14.70;99.90;;;;;;4989213;28;20449;-71
2023/10/31 04:49:37;;;;;;;4.77;4.33;;;14.70;99.90;;;;;;5001355;28;20435;-71
2023/10/31 04:52:03;;;;;;;7.17;4.27;;;14.70;99.90;;;;;;4983609;28;20551;-71
2023/10/31 04:54:34;;;;;;;5.13;4.63;;;14.70;99.90;;;;;;4973384;28;20472;-71
2023/10/31 04:57:03;;;;;;;4.97;4.40;;;14.70;99.90;;;;;;4982162;28;20430;-71
2023/10/31 04:59:29;;;;;;;5.27;4.40;;;14.70;99.90;;;;;;4989449;28;20416;-71
2023/10/31 05:02:00;;;;;;;4.40;3.90;;;14.60;99.90;;;;;;4980189;28;20480;-71
2023/10/31 05:04:26;;;;;;;5.13;4.63;;;14.60;99.90;;;;;;4979778;28;21030;-71
2023/10/31 05:06:52;;;;;;;5.20;4.80;;;14.70;99.90;;;;;;4981804;28;20623;-71
2023/10/31 05:09:19;;;;;;;5.37;4.47;;;14.70;99.90;;;;;;4979995;28;20442;-71
2023/10/31 05:11:45;;;;;;;4.03;3.73;;;14.60;99.90;;;;;;4963860;28;20491;-71
2023/10/31 05:14:11;;;;;;;5.00;4.50;;;14.60;99.90;;;;;;4980204;28;20431;-71
2023/10/31 05:16:44;;;;;;;6.43;4.50;;;14.60;99.90;;;;;;4979314;28;20954;-71
2023/10/31 05:19:10;;;;;;;5.07;4.50;;;14.60;99.90;;;;;;4968100;28;20515;-71
2023/10/31 05:21:36;;;;;;;4.73;4.27;;;14.60;99.90;;;;;;4984171;28;20440;-71
2023/10/31 05:24:05;;;;;;;4.80;4.40;;;14.60;99.90;;;;;;4984153;28;20806;-71
2023/10/31 05:26:31;;;;;;;4.83;4.47;;;14.60;99.90;;;;;;4935391;28;20444;-71
2023/10/31 05:28:57;;;;;;;4.33;3.90;;;14.60;99.90;;;;;;4984269;28;20449;-71
2023/10/31 05:31:24;;;;;;;4.73;4.33;;;14.60;99.90;;;;;;4950860;28;20454;-74
2023/10/31 05:33:54;;;;;;;5.03;4.63;;;14.60;99.90;;;;;;4950804;28;20453;-75
2023/10/31 05:36:27;;;;;;;4.83;4.43;;;14.60;99.90;;;;;;4983889;28;21034;-70
2023/10/31 05:38:54;;;;;;;5.90;4.97;;;14.60;99.90;;;;;;4967028;28;20425;-69
2023/10/31 05:41:22;;;;;;;5.10;4.70;;;14.60;99.90;;;;;;4966908;28;20479;-71
2023/10/31 05:43:48;;;;;;;4.60;4.20;;;14.60;99.90;;;;;;4966851;28;20413;-71
2023/10/31 05:46:19;;;;;;;4.20;3.90;;;14.60;99.90;;;;;;4967202;28;20476;-71
2023/10/31 05:48:46;;;;;;;4.60;4.20;;;14.60;99.90;;;;;;4966433;28;21304;-71
2023/10/31 05:51:25;;;;;;;4.70;4.17;;;14.60;99.90;;;;;;4967081;28;20857;-70
2023/10/31 05:53:51;;;;;;;5.10;4.50;;;14.60;99.90;;;;;;4966920;28;20425;-71
2023/10/31 05:56:17;;;;;;;4.50;4.10;;;14.60;99.90;;;;;;4950283;28;20464;-71
2023/10/31 05:58:45;;;;;;;4.67;4.27;;;14.60;99.90;;;;;;4966589;28;20776;-71
2023/10/31 06:01:11;;;;;;;4.80;4.40;;;14.50;99.90;;;;;;4966876;28;20437;-71
2023/10/31 06:03:40;;;;;;;5.10;4.33;;;14.50;99.90;;;;;;4984264;28;20441;-71
2023/10/31 06:06:06;;;;;;;4.73;4.30;;;14.60;99.90;;;;;;4950847;28;20592;-71
2023/10/31 06:08:34;;;;;;;5.07;4.40;;;14.50;99.90;;;;;;4966582;28;21001;-70
2023/10/31 06:11:00;;;;;;;5.53;4.43;;;14.50;99.90;;;;;;4966330;28;20465;-71
2023/10/31 06:13:31;;;;;;;5.23;4.77;;;14.50;99.90;;;;;;4983972;28;20485;-71
2023/10/31 06:16:03;;;;;;;4.30;3.97;;;14.50;99.90;;;;;;4965700;28;20472;-71
2023/10/31 06:18:31;;;;;;;4.30;3.90;;;14.60;99.90;;;;;;4983816;28;20417;-71
2023/10/31 06:20:57;;;;;;;5.80;4.03;;;14.50;99.90;;;;;;4983960;28;20425;-72
2023/10/31 06:23:23;;;;;;;4.83;4.43;;;14.60;99.90;;;;;;4969423;28;20739;-71
2023/10/31 06:25:51;;;;;;;5.00;4.57;;;14.50;99.90;;;;;;5004030;28;20422;-71
2023/10/31 06:28:19;;;;;;;5.27;4.87;;;14.50;99.90;;;;;;4985458;28;20527;-70
2023/10/31 06:30:44;;;;;;;4.10;3.80;;;14.50;99.90;;;;;;5003442;28;20921;-70
2023/10/31 06:33:11;;;;;;;5.13;4.40;;;14.50;99.90;;;;;;4969219;28;20447;-70
2023/10/31 06:35:37;;;;;;;4.43;4.03;;;14.50;99.90;;;;;;4967464;28;20918;-73
2023/10/31 06:38:03;;;;;;;4.73;4.33;;;14.50;99.90;;;;;;4964440;28;20438;-71
2023/10/31 06:40:34;;;;;;;4.47;4.13;;;14.50;99.90;;;;;;4964057;28;20975;-72
2023/10/31 06:43:04;;;;;;;4.60;4.20;;;14.50;99.90;;;;;;4964832;28;20452;-73
2023/10/31 06:45:32;;;;;;;5.83;4.10;;;14.50;99.90;;;;;;4948186;28;20439;-73
2023/10/31 06:47:59;;;;;;;5.93;4.30;;;14.50;99.90;;;;;;4948411;28;20500;-73
2023/10/31 06:50:27;;;;;;;4.20;3.87;;;14.50;99.90;;;;;;4947636;28;20822;-73
2023/10/31 06:52:53;;;;;;;4.77;4.37;;;14.50;99.90;;;;;;4954876;28;20482;-73
2023/10/31 06:55:22;;;;;;;5.40;5.00;;;14.50;99.90;;;;;;4979580;28;20910;-73
2023/10/31 06:57:47;;;;;;;5.20;4.70;;;14.50;99.90;;;;;;4964325;28;20455;-73
2023/10/31 07:00:14;;;;;;;5.03;4.53;;;14.50;99.90;;;;;;4947812;28;20793;-72
2023/10/31 07:02:40;;;;;;;4.93;4.43;;;14.50;99.90;;;;;;4948232;28;20444;-73
2023/10/31 07:05:06;;;;;;;4.90;4.50;;;14.50;99.90;;;;;;4948059;28;20448;-72
2023/10/31 07:07:37;;;;;;;4.87;4.47;;;14.50;99.90;;;;;;4948422;28;20467;-73
2023/10/31 07:10:06;;;;;;;5.30;4.80;;;14.50;99.90;;;;;;4976444;28;20525;-73
2023/10/31 07:12:36;;;;;;;5.40;4.90;;;14.50;99.90;;;;;;4981296;28;20779;-72
2023/10/31 07:15:04;;;;;;;5.30;4.90;;;14.50;99.90;;;;;;4963428;28;20511;-73
2023/10/31 07:17:30;;;;;;;6.00;5.40;;;14.50;99.90;;;;;;4963178;28;20474;-72
2023/10/31 07:19:59;;;;;;;5.63;5.03;;;14.40;99.90;;;;;;4947931;28;20467;-72
2023/10/31 07:22:27;;;;;;;7.10;5.30;;;14.40;99.90;;;;;;4981073;28;20501;-72
2023/10/31 07:24:56;;;;;;;5.17;4.67;;;14.40;99.90;;;;;;4982249;28;20487;-72
2023/10/31 07:27:27;;;;;;;5.20;4.80;;;14.50;99.90;;;;;;4963552;28;20511;-72
2023/10/31 07:29:53;;;;;;;5.60;5.10;;;14.40;99.90;;;;;;4980808;28;20950;-71
2023/10/31 07:32:18;;;;;;;6.47;5.30;;;14.40;99.90;;;;;;4947357;28;20811;-72
2023/10/31 07:34:45;;;;;;;6.40;5.20;;;14.40;99.90;;;;;;4963543;28;20225;-72
2023/10/31 07:37:13;;;;;;;6.77;5.30;;;14.40;99.90;;;;;;4963572;28;20522;-72
2023/10/31 07:39:39;;;;;;;5.37;4.87;;;14.50;99.90;;;;;;4960046;28;20472;-72
2023/10/31 07:42:08;;;;;;;6.13;5.53;;;14.40;99.90;;;;;;4974827;28;20965;-72
2023/10/31 07:44:34;;;;;;;9.03;5.67;;;14.40;99.90;;;;;;4963401;28;20793;-72
2023/10/31 07:47:00;;;;;;;5.83;5.33;;;14.40;99.90;;;;;;4962725;28;21214;-71
2023/10/31 07:49:29;;;;;;;5.73;5.23;;;14.40;99.90;;;;;;4965436;28;20427;-72
2023/10/31 07:51:56;;;;;;;5.70;5.20;;;14.40;99.90;;;;;;4983673;28;20532;-72
2023/10/31 07:54:24;;;;;;;6.20;5.60;;;14.40;99.90;;;;;;4965510;28;20538;-72
2023/10/31 07:56:52;;;;;;;5.50;5.00;;;14.40;99.90;;;;;;4973320;28;20792;-72
2023/10/31 07:59:18;;;;;;;6.20;5.70;;;14.40;99.90;;;;;;4952395;28;20820;-72
2023/10/31 08:01:44;;;;;;;7.10;5.10;;;14.40;99.90;;;;;;4973413;28;20459;-72
2023/10/31 08:04:10;;;;;;;6.80;6.20;;;14.40;99.90;;;;;;4946188;28;20305;-72
2023/10/31 08:06:39;;;;;;;5.90;5.40;;;14.40;99.90;;;;;;4990156;28;20432;-72
2023/10/31 08:09:07;;;;;;;5.43;4.90;;;14.40;99.90;;;;;;4963927;28;20437;-72
2023/10/31 08:11:35;;;;;;;6.00;5.50;;;14.40;99.90;;;;;;4962576;28;21880;-72
2023/10/31 08:14:03;;;;;;;5.50;5.10;;;14.40;99.90;;;;;;4980595;28;20426;-71
2023/10/31 08:16:34;;;;;;;6.03;5.53;;;14.40;99.90;;;;;;4980056;28;20852;-72
2023/10/31 08:19:00;;;;;;;5.30;4.80;;;14.40;99.90;;;;;;4948021;28;20459;-72
2023/10/31 08:21:31;;;;;;;5.50;5.00;;;14.40;99.90;;;;;;4963159;28;20685;-72
2023/10/31 08:24:01;;;;;;;5.10;4.70;;;14.40;99.90;;;;;;4962998;28;20620;-71
2023/10/31 08:26:34;;;;;;;5.83;5.30;;;14.40;99.90;;;;;;4962832;28;20449;-72
2023/10/31 08:29:03;;;;;;;5.90;4.60;;;14.40;99.90;;;;;;4962614;28;20453;-72
2023/10/31 08:31:29;;;;;;;5.20;4.80;;;14.40;99.90;;;;;;4962435;28;20607;-72
2023/10/31 08:33:54;;;;;;;4.93;4.53;;;14.40;99.90;;;;;;4968329;28;20482;-71
2023/10/31 08:36:23;;;;;;;4.60;4.30;;;14.40;99.90;;;;;;4948502;28;21046;-72
2023/10/31 08:38:52;;;;;;;5.77;5.00;;;14.40;99.90;;;;;;4981461;28;20445;-71
2023/10/31 08:41:19;;;;;;;4.77;4.40;;;14.40;99.90;;;;;;4962697;28;20449;-71
2023/10/31 08:43:46;;;;;;;5.33;4.83;;;14.40;99.90;;;;;;4980488;28;20437;-72
2023/10/31 08:46:13;;;;;;;4.97;4.57;;;14.40;99.90;;;;;;4963287;28;20441;-71
2023/10/31 08:48:41;;;;;;;5.10;4.70;;;14.40;99.90;;;;;;4966496;28;20992;-71
2023/10/31 08:51:09;;;;;;;9.10;4.33;;;14.40;99.90;;;;;;4967925;28;20511;-76
2023/10/31 08:53:38;;;;;;;5.10;4.70;;;14.40;99.90;;;;;;4950707;28;20468;-74
2023/10/31 08:56:05;;;;;;;4.77;4.37;;;14.40;99.90;;;;;;4986061;28;20930;-70
2023/10/31 08:58:35;;;;;;;4.47;4.13;;;14.40;99.90;;;;;;4948940;28;20513;-70
2023/10/31 09:01:01;;;;;;;4.17;3.77;;;14.40;99.90;;;;;;4946518;28;20479;-70
2023/10/31 09:03:27;;;;;;;4.90;4.47;;;14.40;99.90;;;;;;4980542;28;20456;-70
2023/10/31 09:05:53;;;;;;;4.47;4.17;;;14.40;99.90;;;;;;4980852;28;20437;-72
2023/10/31 09:08:20;;;;;;;4.67;4.30;;;14.40;99.90;;;;;;4962251;28;20440;-72
2023/10/31 09:10:49;;;;;;;4.70;4.30;;;14.40;99.90;;;;;;4967780;28;20457;-72
2023/10/31 09:13:17;;;;;;;4.10;3.80;;;14.40;99.90;;;;;;4978654;28;20467;-72
2023/10/31 09:15:46;;;;;;;4.33;4.03;;;14.40;99.90;;;;;;4978747;28;20578;-71
2023/10/31 09:21:01;;;;;;;4.30;4.00;;;14.40;99.90;;;;;;5057832;28;20624;-70
2023/10/31 09:23:29;;;;;;;4.80;4.40;;;14.40;99.90;;;;;;5055737;28;20962;-72
2023/10/31 09:25:56;;;;;;;4.20;3.80;;;14.40;99.90;;;;;;5057873;28;20528;-72
2023/10/31 09:28:25;;;;;;;4.60;4.20;;;14.40;99.90;;;;;;5055621;28;20941;-72
2023/10/31 09:30:51;;;;;;;5.27;4.80;;;14.40;99.90;;;;;;5039951;28;20792;-72
2023/10/31 09:33:17;;;;;;;4.93;4.60;;;14.40;99.90;;;;;;5056985;28;20460;-72
2023/10/31 09:35:44;;;;;;;5.67;5.20;;;14.40;99.90;;;;;;5039984;28;20429;-71
2023/10/31 09:38:10;;;;;;;5.47;4.90;;;14.40;99.90;;;;;;5057415;28;21081;-72
2023/10/31 09:40:40;;;;;;;7.00;5.13;;;14.40;99.90;;;;;;5055550;28;20484;-71
2023/10/31 09:43:05;;;;;;;5.13;4.63;;;14.40;99.90;;;;;;5057253;28;20507;-71
2023/10/31 09:45:32;;;;;;;5.20;4.80;;;14.40;99.90;;;;;;5055827;28;20481;-72
2023/10/31 09:48:00;;;;;;;5.73;5.20;;;14.40;99.90;;;;;;5055783;28;20795;-71
2023/10/31 09:50:29;;;;;;;5.20;4.80;;;14.40;99.90;;;;;;5057267;28;20423;-72
2023/10/31 09:52:56;;;;;;;4.93;4.53;;;14.40;99.90;;;;;;5055486;28;20524;-71
2023/10/31 09:55:23;;;;;;;7.90;4.83;;;14.40;99.90;;;;;;5057334;28;20418;-72
2023/10/31 09:57:52;;;;;;;5.20;4.70;;;14.40;99.90;;;;;;5039269;28;20417;-72
2023/10/31 10:00:21;;;;;;;6.03;4.93;;;14.40;99.90;;;;;;5056995;28;20542;-72
2023/10/31 10:02:50;;;;;;;5.60;5.00;;;14.40;99.90;;;;;;5055250;28;20428;-72
2023/10/31 10:05:19;;;;;;;5.80;4.90;;;14.40;99.90;;;;;;5023003;28;20991;-72
2023/10/31 10:07:46;;;;;;;5.57;5.07;;;14.40;99.90;;;;;;5057561;28;20459;-71
2023/10/31 10:10:12;;;;;;;5.97;5.30;;;14.40;99.90;;;;;;5038967;28;21051;-72
2023/10/31 10:12:42;;;;;;;5.67;5.17;;;14.40;99.90;;;;;;5038378;28;20785;-72
2023/10/31 10:15:12;;;;;;;5.33;4.83;;;14.40;99.90;;;;;;5038492;28;20461;-72
2023/10/31 10:17:39;;;;;;;4.80;4.40;;;14.40;99.90;;;;;;5054896;28;20439;-72
2023/10/31 10:20:08;;;;;;;5.50;5.00;;;14.40;99.90;;;;;;5038343;28;20463;-72
2023/10/31 10:22:42;;;;;;;6.27;5.23;;;14.40;99.90;;;;;;5038428;28;20535;-71
2023/10/31 10:25:16;;;;;;;6.17;5.60;;;14.40;99.90;;;;;;5054570;28;20417;-71
2023/10/31 10:27:45;;;;;;;5.47;4.97;;;14.40;99.90;;;;;;5055951;28;20442;-71
2023/10/31 10:30:12;;;;;;;4.87;4.47;;;14.40;99.90;;;;;;5037540;28;20715;-71
2023/10/31 10:32:41;;;;;;;5.67;5.07;;;14.40;99.90;;;;;;5024497;28;20638;-71
2023/10/31 10:35:08;;;;;;;4.97;4.67;;;14.40;99.90;;;;;;5041673;28;20465;-71
2023/10/31 10:37:39;;;;;;;5.20;4.37;;;14.40;99.90;;;;;;5025154;28;20441;-71
2023/10/31 10:40:07;;;;;;;4.90;4.50;;;14.40;99.90;;;;;;5043475;28;20477;-71
2023/10/31 10:42:50;;;;;;;6.30;4.13;;;14.40;99.90;;;;;;5008696;28;21128;-71
2023/10/31 10:45:22;;;;;;;5.33;3.80;;;14.40;99.90;;;;;;5042742;28;20426;-71
2023/10/31 10:48:00;;;;;;;7.00;4.50;;;14.40;99.90;;;;;;5024947;28;20513;-71
2023/10/31 10:50:29;;;;;;;4.63;3.93;;;14.40;99.90;;;;;;5041341;28;21007;-71
2023/10/31 10:53:25;;;;;;;5.87;4.77;;;14.40;99.90;;;;;;5042357;28;20448;-71
2023/10/31 10:55:55;;;;;;;4.70;3.97;;;14.40;99.90;;;;;;5024672;28;20554;-72
2023/10/31 10:58:55;;;;;;;5.13;4.07;;;14.50;99.90;;;;;;5040950;28;20430;-71
2023/10/31 11:01:22;;;;;;;3.87;3.47;;;14.40;99.90;;;;;;5024509;28;20438;-71
2023/10/31 11:03:49;;;;;;;3.70;3.40;;;14.40;99.90;;;;;;5040950;28;20452;-71
2023/10/31 11:06:22;;;;;;;4.93;3.90;;;14.40;99.90;;;;;;5008633;28;20417;-71
2023/10/31 11:08:52;;;;;;;5.10;4.00;;;14.50;99.90;;;;;;5040850;28;20577;-71
2023/10/31 11:11:19;;;;;;;3.73;3.33;;;14.50;99.90;;;;;;5042602;28;20436;-71
2023/10/31 11:13:53;;;;;;;3.97;3.57;;;14.40;99.90;;;;;;5040689;28;20411;-71
2023/10/31 11:16:44;;;;;;;3.87;3.47;;;14.50;99.90;;;;;;5040947;28;20438;-71
2023/10/31 11:19:11;;;;;;;4.20;3.30;;;14.50;99.90;;;;;;5024354;28;20557;-71
2023/10/31 11:21:57;;;;;;;8.03;3.47;;;14.50;99.90;;;;;;5041684;28;20980;-71
2023/10/31 11:24:33;;;;;;;3.73;3.33;;;14.50;99.90;;;;;;5040393;28;20418;-71
2023/10/31 11:27:02;;;;;;;3.30;3.00;;;14.50;99.90;;;;;;5041403;28;20472;-72
2023/10/31 11:29:32;;;;;;;4.83;2.90;;;14.50;99.90;;;;;;5041017;28;20458;-71
2023/10/31 11:32:01;;;;;;;4.20;2.93;;;14.50;99.90;;;;;;5038920;28;20437;-71
2023/10/31 11:34:29;;;;;;;4.30;3.40;;;14.50;99.90;;;;;;5038731;28;20430;-71
2023/10/31 11:37:38;;;;;;;3.57;3.00;;;14.50;99.90;;;;;;5039221;28;20978;-71
2023/10/31 11:40:22;;;;;;;3.90;3.50;;;14.50;99.90;;;;;;5004530;28;20478;-71
2023/10/31 11:42:54;;;;;;;3.03;2.83;;;14.50;99.90;;;;;;5037059;28;21016;-71
2023/10/31 11:45:47;;;;;;;3.93;2.70;;;14.50;99.90;;;;;;5040229;28;20423;-71
2023/10/31 11:48:14;;;;;;;5.73;3.33;;;14.50;99.90;;;;;;5038611;28;20418;-71
2023/10/31 11:50:41;;;;;;;3.50;2.90;;;14.50;99.90;;;;;;5039127;28;21260;-71
2023/10/31 11:53:17;;;;;;;4.03;2.60;;;14.50;99.90;;;;;;5038941;28;20419;-71
2023/10/31 11:55:47;;;;;;;6.43;3.20;;;14.50;99.90;;;;;;5022541;28;20463;-71
2023/10/31 11:58:22;;;;;;;3.10;2.87;;;14.60;99.90;;;;;;5038214;28;20422;-71
2023/10/31 12:00:54;;;;;;;3.83;2.90;;;14.50;99.90;;;;;;5038225;28;20480;-71
2023/10/31 12:03:23;;;;;;;3.60;3.10;;;14.50;99.90;;;;;;5021499;28;21291;-71
2023/10/31 12:05:59;;;;;;;6.20;3.40;;;14.50;99.90;;;;;;5040417;28;20791;-71
2023/10/31 12:08:40;;;;;;;3.20;2.90;;;14.50;99.90;;;;;;5039452;28;20409;-71
2023/10/31 12:11:13;;;;;;;3.60;2.63;;;14.60;99.90;;;;;;5038005;28;20445;-71
2023/10/31 12:14:04;;;;;;;3.13;2.93;;;14.60;99.90;;;;;;5037612;28;20513;-70
2023/10/31 12:16:33;;;;;;;5.87;2.87;;;14.60;99.90;;;;;;5039549;28;20478;-71
2023/10/31 12:19:03;;;;;;;3.00;2.70;;;14.60;99.90;;;;;;5021609;28;20501;-71
2023/10/31 12:21:43;;;;;;;3.03;2.83;;;14.60;99.90;;;;;;5020243;28;21021;-71
2023/10/31 12:24:14;;;;;;;2.97;2.77;;;14.60;99.90;;;;;;5021008;28;20448;-71
2023/10/31 12:26:44;;;;;;;4.40;3.23;;;14.60;99.90;;;;;;5039043;28;20430;-71
2023/10/31 12:29:20;;;;;;;6.10;3.00;;;14.60;99.90;;;;;;5037587;28;20425;-71
2023/10/31 12:31:54;;;;;;;3.83;3.07;;;14.60;99.90;;;;;;5037894;28;20463;-71
2023/10/31 12:34:22;;;;;;;2.70;2.50;;;14.60;99.90;;;;;;5039321;28;20498;-71
2023/10/31 12:36:51;;;;;;;3.33;2.93;;;14.60;99.90;;;;;;5038830;28;20403;-71
2023/10/31 12:39:25;;;;;;;4.70;3.00;;;14.60;99.90;;;;;;5039112;28;20466;-71
2023/10/31 12:41:52;;;;;;;4.87;2.60;;;14.60;99.90;;;;;;5039425;28;20442;-71
2023/10/31 12:44:26;;;;;;;3.87;2.93;;;14.60;99.90;;;;;;5038840;28;21237;-71
2023/10/31 12:46:56;;;;;;;4.37;2.47;;;14.60;99.90;;;;;;5037236;28;21295;-70
2023/10/31 12:49:24;;;;;;;2.77;2.47;;;14.60;99.90;;;;;;5037232;28;20422;-71
2023/10/31 12:52:03;;;;;;;3.17;2.87;;;14.60;99.90;;;;;;5020675;28;20450;-71
2023/10/31 12:54:30;;;;;;;2.70;2.50;;;14.60;99.90;;;;;;5037324;28;20429;-70
2023/10/31 12:57:01;;;;;;;3.63;3.27;;;14.60;99.90;;;;;;5038617;28;20539;-71
2023/10/31 12:59:29;;;;;;;2.97;2.77;;;14.60;99.90;;;;;;5036863;28;20945;-71